sensor_id;sensor_type;location;lat;lon;timestamp;P1;durP1;ratioP1;P2;durP2;ratioP2
61915;SDS011;47868;51.326;6.550;2023-08-07T00:00:49;7.25;;;2.42;;
61915;SDS011;47868;51.326;6.550;2023-08-07T00:03:15;7.82;;;2.60;;
61915;SDS011;47868;51.326;6.550;2023-08-07T00:05:46;6.15;;;2.90;;
61915;SDS011;47868;51.326;6.550;2023-08-07T00:08:12;7.07;;;2.90;;
61915;SDS011;47868;51.326;6.550;2023-08-07T00:10:38;9.95;;;2.88;;
61915;SDS011;47868;51.326;6.550;2023-08-07T00:13:05;8.73;;;3.15;;
61915;SDS011;47868;51.326;6.550;2023-08-07T00:15:31;9.07;;;2.55;;
61915;SDS011;47868;51.326;6.550;2023-08-07T00:17:58;13.00;;;2.63;;
61915;SDS011;47868;51.326;6.550;2023-08-07T00:20:24;8.30;;;2.88;;
61915;SDS011;47868;51.326;6.550;2023-08-07T00:22:50;10.55;;;2.67;;
61915;SDS011;47868;51.326;6.550;2023-08-07T00:25:16;7.68;;;2.88;;
61915;SDS011;47868;51.326;6.550;2023-08-07T00:27:42;12.18;;;3.33;;
61915;SDS011;47868;51.326;6.550;2023-08-07T00:30:08;7.90;;;2.83;;
61915;SDS011;47868;51.326;6.550;2023-08-07T00:32:34;9.40;;;2.78;;
61915;SDS011;47868;51.326;6.550;2023-08-07T00:35:00;11.93;;;2.85;;
61915;SDS011;47868;51.326;6.550;2023-08-07T00:37:26;7.68;;;3.08;;
61915;SDS011;47868;51.326;6.550;2023-08-07T00:39:52;8.23;;;2.50;;
61915;SDS011;47868;51.326;6.550;2023-08-07T00:42:18;9.45;;;3.00;;
61915;SDS011;47868;51.326;6.550;2023-08-07T00:44:44;9.60;;;2.83;;
61915;SDS011;47868;51.326;6.550;2023-08-07T00:47:10;8.90;;;2.38;;
61915;SDS011;47868;51.326;6.550;2023-08-07T00:49:36;9.25;;;2.83;;
61915;SDS011;47868;51.326;6.550;2023-08-07T00:52:02;10.48;;;2.75;;
61915;SDS011;47868;51.326;6.550;2023-08-07T00:54:28;6.75;;;2.50;;
61915;SDS011;47868;51.326;6.550;2023-08-07T00:56:55;10.73;;;2.70;;
61915;SDS011;47868;51.326;6.550;2023-08-07T00:59:21;10.43;;;3.30;;
61915;SDS011;47868;51.326;6.550;2023-08-07T01:01:47;13.25;;;3.28;;
61915;SDS011;47868;51.326;6.550;2023-08-07T01:04:14;11.05;;;3.20;;
61915;SDS011;47868;51.326;6.550;2023-08-07T01:06:40;9.18;;;3.22;;
61915;SDS011;47868;51.326;6.550;2023-08-07T01:09:06;7.30;;;3.22;;
61915;SDS011;47868;51.326;6.550;2023-08-07T01:11:55;14.82;;;3.97;;
61915;SDS011;47868;51.326;6.550;2023-08-07T01:14:37;8.65;;;3.20;;
61915;SDS011;47868;51.326;6.550;2023-08-07T01:17:10;8.90;;;2.90;;
61915;SDS011;47868;51.326;6.550;2023-08-07T01:19:36;6.15;;;2.88;;
61915;SDS011;47868;51.326;6.550;2023-08-07T01:24:32;15.98;;;3.40;;
61915;SDS011;47868;51.326;6.550;2023-08-07T01:27:00;8.70;;;3.00;;
61915;SDS011;47868;51.326;6.550;2023-08-07T01:29:31;8.60;;;2.80;;
61915;SDS011;47868;51.326;6.550;2023-08-07T01:31:59;10.63;;;3.60;;
61915;SDS011;47868;51.326;6.550;2023-08-07T01:34:26;9.13;;;2.75;;
61915;SDS011;47868;51.326;6.550;2023-08-07T01:36:53;9.25;;;3.28;;
61915;SDS011;47868;51.326;6.550;2023-08-07T01:39:20;10.40;;;3.30;;
61915;SDS011;47868;51.326;6.550;2023-08-07T01:41:46;14.15;;;3.70;;
61915;SDS011;47868;51.326;6.550;2023-08-07T01:44:12;13.35;;;3.35;;
61915;SDS011;47868;51.326;6.550;2023-08-07T01:46:38;13.90;;;4.00;;
61915;SDS011;47868;51.326;6.550;2023-08-07T01:49:04;12.13;;;3.65;;
61915;SDS011;47868;51.326;6.550;2023-08-07T01:51:30;7.30;;;2.97;;
61915;SDS011;47868;51.326;6.550;2023-08-07T01:53:56;7.80;;;3.67;;
61915;SDS011;47868;51.326;6.550;2023-08-07T01:56:22;12.00;;;3.25;;
61915;SDS011;47868;51.326;6.550;2023-08-07T01:58:48;11.35;;;3.35;;
61915;SDS011;47868;51.326;6.550;2023-08-07T02:01:14;9.98;;;3.53;;
61915;SDS011;47868;51.326;6.550;2023-08-07T02:03:40;13.05;;;3.40;;
61915;SDS011;47868;51.326;6.550;2023-08-07T02:06:06;6.78;;;2.85;;
61915;SDS011;47868;51.326;6.550;2023-08-07T02:08:32;9.85;;;3.50;;
61915;SDS011;47868;51.326;6.550;2023-08-07T02:10:58;8.10;;;3.22;;
61915;SDS011;47868;51.326;6.550;2023-08-07T02:13:26;8.13;;;3.10;;
61915;SDS011;47868;51.326;6.550;2023-08-07T02:15:52;12.15;;;3.90;;
61915;SDS011;47868;51.326;6.550;2023-08-07T02:18:18;9.57;;;3.58;;
61915;SDS011;47868;51.326;6.550;2023-08-07T02:20:44;9.80;;;3.20;;
61915;SDS011;47868;51.326;6.550;2023-08-07T02:23:11;9.70;;;3.30;;
61915;SDS011;47868;51.326;6.550;2023-08-07T02:25:37;7.65;;;3.53;;
61915;SDS011;47868;51.326;6.550;2023-08-07T02:28:03;12.30;;;3.45;;
61915;SDS011;47868;51.326;6.550;2023-08-07T02:30:30;9.57;;;3.30;;
61915;SDS011;47868;51.326;6.550;2023-08-07T02:32:56;7.97;;;3.35;;
61915;SDS011;47868;51.326;6.550;2023-08-07T02:35:22;8.73;;;3.45;;
61915;SDS011;47868;51.326;6.550;2023-08-07T02:37:48;9.18;;;3.22;;
61915;SDS011;47868;51.326;6.550;2023-08-07T02:40:14;11.90;;;3.47;;
61915;SDS011;47868;51.326;6.550;2023-08-07T02:42:42;9.25;;;3.40;;
61915;SDS011;47868;51.326;6.550;2023-08-07T02:45:08;10.98;;;3.53;;
61915;SDS011;47868;51.326;6.550;2023-08-07T02:47:34;12.75;;;3.10;;
61915;SDS011;47868;51.326;6.550;2023-08-07T02:50:00;11.85;;;4.00;;
61915;SDS011;47868;51.326;6.550;2023-08-07T02:52:26;10.27;;;3.47;;
61915;SDS011;47868;51.326;6.550;2023-08-07T02:54:52;9.60;;;3.08;;
61915;SDS011;47868;51.326;6.550;2023-08-07T02:57:18;10.85;;;3.22;;
61915;SDS011;47868;51.326;6.550;2023-08-07T02:59:44;11.85;;;3.13;;
61915;SDS011;47868;51.326;6.550;2023-08-07T03:02:10;10.70;;;3.97;;
61915;SDS011;47868;51.326;6.550;2023-08-07T03:04:36;9.88;;;4.00;;
61915;SDS011;47868;51.326;6.550;2023-08-07T03:07:02;8.93;;;3.63;;
61915;SDS011;47868;51.326;6.550;2023-08-07T03:09:28;9.95;;;3.25;;
61915;SDS011;47868;51.326;6.550;2023-08-07T03:11:54;9.98;;;3.38;;
61915;SDS011;47868;51.326;6.550;2023-08-07T03:14:20;10.23;;;3.45;;
61915;SDS011;47868;51.326;6.550;2023-08-07T03:16:46;14.38;;;4.03;;
61915;SDS011;47868;51.326;6.550;2023-08-07T03:19:12;9.85;;;3.50;;
61915;SDS011;47868;51.326;6.550;2023-08-07T03:21:39;11.38;;;3.35;;
61915;SDS011;47868;51.326;6.550;2023-08-07T03:24:05;13.75;;;3.83;;
61915;SDS011;47868;51.326;6.550;2023-08-07T03:26:31;8.85;;;3.58;;
61915;SDS011;47868;51.326;6.550;2023-08-07T03:28:57;9.10;;;3.75;;
61915;SDS011;47868;51.326;6.550;2023-08-07T03:31:23;12.85;;;4.13;;
61915;SDS011;47868;51.326;6.550;2023-08-07T03:33:48;12.93;;;4.03;;
61915;SDS011;47868;51.326;6.550;2023-08-07T03:36:14;9.90;;;3.88;;
61915;SDS011;47868;51.326;6.550;2023-08-07T03:38:41;13.13;;;3.72;;
61915;SDS011;47868;51.326;6.550;2023-08-07T03:41:07;10.98;;;3.97;;
61915;SDS011;47868;51.326;6.550;2023-08-07T03:43:33;13.80;;;3.80;;
61915;SDS011;47868;51.326;6.550;2023-08-07T03:45:59;12.07;;;3.90;;
61915;SDS011;47868;51.326;6.550;2023-08-07T03:48:25;11.25;;;3.95;;
61915;SDS011;47868;51.326;6.550;2023-08-07T03:50:51;9.13;;;3.65;;
61915;SDS011;47868;51.326;6.550;2023-08-07T03:53:17;7.85;;;3.28;;
61915;SDS011;47868;51.326;6.550;2023-08-07T03:55:43;11.60;;;3.85;;
61915;SDS011;47868;51.326;6.550;2023-08-07T03:58:10;9.27;;;3.72;;
61915;SDS011;47868;51.326;6.550;2023-08-07T04:00:36;14.60;;;3.88;;
61915;SDS011;47868;51.326;6.550;2023-08-07T04:03:02;14.70;;;3.88;;
61915;SDS011;47868;51.326;6.550;2023-08-07T04:05:28;10.02;;;3.38;;
61915;SDS011;47868;51.326;6.550;2023-08-07T04:07:54;13.38;;;3.80;;
61915;SDS011;47868;51.326;6.550;2023-08-07T04:10:20;9.50;;;3.85;;
61915;SDS011;47868;51.326;6.550;2023-08-07T04:12:46;12.75;;;3.70;;
61915;SDS011;47868;51.326;6.550;2023-08-07T04:15:12;11.45;;;3.72;;
61915;SDS011;47868;51.326;6.550;2023-08-07T04:17:38;11.95;;;3.67;;
61915;SDS011;47868;51.326;6.550;2023-08-07T04:20:04;12.93;;;3.63;;
61915;SDS011;47868;51.326;6.550;2023-08-07T04:22:30;9.57;;;3.55;;
61915;SDS011;47868;51.326;6.550;2023-08-07T04:24:56;11.05;;;4.10;;
61915;SDS011;47868;51.326;6.550;2023-08-07T04:27:22;11.48;;;4.47;;
61915;SDS011;47868;51.326;6.550;2023-08-07T04:29:48;15.88;;;3.75;;
61915;SDS011;47868;51.326;6.550;2023-08-07T04:32:14;13.18;;;3.83;;
61915;SDS011;47868;51.326;6.550;2023-08-07T04:34:40;7.50;;;3.50;;
61915;SDS011;47868;51.326;6.550;2023-08-07T04:37:06;14.25;;;3.55;;
61915;SDS011;47868;51.326;6.550;2023-08-07T04:39:32;8.80;;;4.25;;
61915;SDS011;47868;51.326;6.550;2023-08-07T04:41:58;8.88;;;3.38;;
61915;SDS011;47868;51.326;6.550;2023-08-07T04:44:24;13.30;;;4.35;;
61915;SDS011;47868;51.326;6.550;2023-08-07T04:46:50;9.35;;;3.42;;
61915;SDS011;47868;51.326;6.550;2023-08-07T04:49:17;12.60;;;3.67;;
61915;SDS011;47868;51.326;6.550;2023-08-07T04:51:43;12.00;;;4.25;;
61915;SDS011;47868;51.326;6.550;2023-08-07T04:54:09;7.10;;;3.40;;
61915;SDS011;47868;51.326;6.550;2023-08-07T04:56:35;9.32;;;4.05;;
61915;SDS011;47868;51.326;6.550;2023-08-07T04:59:01;9.93;;;4.10;;
61915;SDS011;47868;51.326;6.550;2023-08-07T05:01:27;12.18;;;4.47;;
61915;SDS011;47868;51.326;6.550;2023-08-07T05:03:53;15.38;;;4.47;;
61915;SDS011;47868;51.326;6.550;2023-08-07T05:06:19;10.65;;;4.32;;
61915;SDS011;47868;51.326;6.550;2023-08-07T05:08:45;10.32;;;3.95;;
61915;SDS011;47868;51.326;6.550;2023-08-07T05:11:11;13.95;;;4.40;;
61915;SDS011;47868;51.326;6.550;2023-08-07T05:13:37;10.05;;;4.65;;
61915;SDS011;47868;51.326;6.550;2023-08-07T05:16:03;17.25;;;4.03;;
61915;SDS011;47868;51.326;6.550;2023-08-07T05:18:29;13.40;;;4.55;;
61915;SDS011;47868;51.326;6.550;2023-08-07T05:20:55;12.27;;;4.30;;
61915;SDS011;47868;51.326;6.550;2023-08-07T05:23:21;13.52;;;4.53;;
61915;SDS011;47868;51.326;6.550;2023-08-07T05:25:48;13.60;;;3.80;;
61915;SDS011;47868;51.326;6.550;2023-08-07T05:28:14;12.40;;;3.97;;
61915;SDS011;47868;51.326;6.550;2023-08-07T05:30:40;14.40;;;4.55;;
61915;SDS011;47868;51.326;6.550;2023-08-07T05:33:06;11.55;;;4.50;;
61915;SDS011;47868;51.326;6.550;2023-08-07T05:35:32;11.90;;;4.47;;
61915;SDS011;47868;51.326;6.550;2023-08-07T05:37:58;13.20;;;4.65;;
61915;SDS011;47868;51.326;6.550;2023-08-07T05:40:24;15.85;;;5.60;;
61915;SDS011;47868;51.326;6.550;2023-08-07T05:42:50;13.48;;;4.80;;
61915;SDS011;47868;51.326;6.550;2023-08-07T05:45:16;12.15;;;4.32;;
61915;SDS011;47868;51.326;6.550;2023-08-07T05:47:42;10.65;;;4.68;;
61915;SDS011;47868;51.326;6.550;2023-08-07T05:50:08;12.27;;;4.47;;
61915;SDS011;47868;51.326;6.550;2023-08-07T05:52:34;14.57;;;5.47;;
61915;SDS011;47868;51.326;6.550;2023-08-07T05:55:00;16.88;;;5.47;;
61915;SDS011;47868;51.326;6.550;2023-08-07T05:57:26;9.02;;;4.55;;
61915;SDS011;47868;51.326;6.550;2023-08-07T05:59:52;11.25;;;4.97;;
61915;SDS011;47868;51.326;6.550;2023-08-07T06:02:18;10.93;;;4.47;;
61915;SDS011;47868;51.326;6.550;2023-08-07T06:04:44;11.63;;;4.97;;
61915;SDS011;47868;51.326;6.550;2023-08-07T06:07:10;11.40;;;4.60;;
61915;SDS011;47868;51.326;6.550;2023-08-07T06:09:38;11.52;;;4.47;;
61915;SDS011;47868;51.326;6.550;2023-08-07T06:12:19;9.48;;;4.28;;
61915;SDS011;47868;51.326;6.550;2023-08-07T06:14:45;11.38;;;5.15;;
61915;SDS011;47868;51.326;6.550;2023-08-07T06:17:11;15.85;;;4.80;;
61915;SDS011;47868;51.326;6.550;2023-08-07T06:19:41;9.77;;;5.03;;
61915;SDS011;47868;51.326;6.550;2023-08-07T06:22:07;10.75;;;4.95;;
61915;SDS011;47868;51.326;6.550;2023-08-07T06:24:33;14.65;;;5.60;;
61915;SDS011;47868;51.326;6.550;2023-08-07T06:26:59;13.70;;;5.20;;
61915;SDS011;47868;51.326;6.550;2023-08-07T06:29:25;13.32;;;5.35;;
61915;SDS011;47868;51.326;6.550;2023-08-07T06:31:51;12.02;;;4.68;;
61915;SDS011;47868;51.326;6.550;2023-08-07T06:34:17;11.48;;;4.68;;
61915;SDS011;47868;51.326;6.550;2023-08-07T06:36:43;15.82;;;4.97;;
61915;SDS011;47868;51.326;6.550;2023-08-07T06:39:09;12.13;;;5.57;;
61915;SDS011;47868;51.326;6.550;2023-08-07T06:41:35;12.70;;;4.70;;
61915;SDS011;47868;51.326;6.550;2023-08-07T06:44:01;8.60;;;4.25;;
61915;SDS011;47868;51.326;6.550;2023-08-07T06:46:27;8.73;;;4.93;;
61915;SDS011;47868;51.326;6.550;2023-08-07T06:48:54;12.63;;;4.65;;
61915;SDS011;47868;51.326;6.550;2023-08-07T06:51:20;14.10;;;5.43;;
61915;SDS011;47868;51.326;6.550;2023-08-07T06:53:46;8.70;;;4.43;;
61915;SDS011;47868;51.326;6.550;2023-08-07T06:56:12;9.70;;;4.15;;
61915;SDS011;47868;51.326;6.550;2023-08-07T06:58:38;8.25;;;4.28;;
61915;SDS011;47868;51.326;6.550;2023-08-07T07:01:04;8.85;;;4.85;;
61915;SDS011;47868;51.326;6.550;2023-08-07T07:03:31;10.82;;;4.72;;
61915;SDS011;47868;51.326;6.550;2023-08-07T07:05:57;9.50;;;4.50;;
61915;SDS011;47868;51.326;6.550;2023-08-07T07:08:23;7.30;;;4.38;;
61915;SDS011;47868;51.326;6.550;2023-08-07T07:10:49;13.68;;;5.15;;
61915;SDS011;47868;51.326;6.550;2023-08-07T07:13:15;9.38;;;4.28;;
61915;SDS011;47868;51.326;6.550;2023-08-07T07:15:41;10.13;;;4.65;;
61915;SDS011;47868;51.326;6.550;2023-08-07T07:18:07;11.07;;;4.68;;
61915;SDS011;47868;51.326;6.550;2023-08-07T07:20:33;17.45;;;5.28;;
61915;SDS011;47868;51.326;6.550;2023-08-07T07:22:59;9.80;;;4.28;;
61915;SDS011;47868;51.326;6.550;2023-08-07T07:25:25;11.90;;;4.45;;
61915;SDS011;47868;51.326;6.550;2023-08-07T07:27:51;13.60;;;4.95;;
61915;SDS011;47868;51.326;6.550;2023-08-07T07:30:17;13.27;;;4.32;;
61915;SDS011;47868;51.326;6.550;2023-08-07T07:32:43;14.60;;;5.07;;
61915;SDS011;47868;51.326;6.550;2023-08-07T07:35:09;18.73;;;5.88;;
61915;SDS011;47868;51.326;6.550;2023-08-07T07:37:35;11.93;;;5.00;;
61915;SDS011;47868;51.326;6.550;2023-08-07T07:40:01;13.65;;;5.10;;
61915;SDS011;47868;51.326;6.550;2023-08-07T07:42:27;14.60;;;5.63;;
61915;SDS011;47868;51.326;6.550;2023-08-07T07:44:53;10.23;;;4.72;;
61915;SDS011;47868;51.326;6.550;2023-08-07T07:47:19;13.48;;;4.97;;
61915;SDS011;47868;51.326;6.550;2023-08-07T07:49:46;18.15;;;5.25;;
61915;SDS011;47868;51.326;6.550;2023-08-07T07:52:13;9.88;;;4.82;;
61915;SDS011;47868;51.326;6.550;2023-08-07T07:54:39;19.73;;;5.65;;
61915;SDS011;47868;51.326;6.550;2023-08-07T07:57:05;9.80;;;5.03;;
61915;SDS011;47868;51.326;6.550;2023-08-07T07:59:31;21.42;;;5.07;;
61915;SDS011;47868;51.326;6.550;2023-08-07T08:01:57;14.50;;;5.13;;
61915;SDS011;47868;51.326;6.550;2023-08-07T08:04:23;10.00;;;4.63;;
61915;SDS011;47868;51.326;6.550;2023-08-07T08:06:49;11.20;;;4.72;;
61915;SDS011;47868;51.326;6.550;2023-08-07T08:09:15;12.40;;;4.32;;
61915;SDS011;47868;51.326;6.550;2023-08-07T08:11:41;9.23;;;4.70;;
61915;SDS011;47868;51.326;6.550;2023-08-07T08:14:07;9.07;;;4.70;;
61915;SDS011;47868;51.326;6.550;2023-08-07T08:16:33;12.70;;;4.35;;
61915;SDS011;47868;51.326;6.550;2023-08-07T08:18:59;9.98;;;4.20;;
61915;SDS011;47868;51.326;6.550;2023-08-07T08:21:25;14.05;;;5.25;;
61915;SDS011;47868;51.326;6.550;2023-08-07T08:23:51;10.57;;;3.35;;
61915;SDS011;47868;51.326;6.550;2023-08-07T08:26:17;7.82;;;3.38;;
61915;SDS011;47868;51.326;6.550;2023-08-07T08:28:43;5.22;;;2.88;;
61915;SDS011;47868;51.326;6.550;2023-08-07T08:31:09;6.95;;;2.92;;
61915;SDS011;47868;51.326;6.550;2023-08-07T08:33:35;7.72;;;3.00;;
61915;SDS011;47868;51.326;6.550;2023-08-07T08:36:03;4.22;;;2.67;;
61915;SDS011;47868;51.326;6.550;2023-08-07T08:38:29;4.65;;;2.20;;
61915;SDS011;47868;51.326;6.550;2023-08-07T08:40:58;4.65;;;2.70;;
61915;SDS011;47868;51.326;6.550;2023-08-07T08:43:27;3.53;;;2.63;;
61915;SDS011;47868;51.326;6.550;2023-08-07T08:45:53;11.02;;;3.63;;
61915;SDS011;47868;51.326;6.550;2023-08-07T08:48:20;6.72;;;3.03;;
61915;SDS011;47868;51.326;6.550;2023-08-07T08:50:49;8.10;;;3.03;;
61915;SDS011;47868;51.326;6.550;2023-08-07T08:53:15;8.57;;;3.40;;
61915;SDS011;47868;51.326;6.550;2023-08-07T08:55:42;9.23;;;3.53;;
61915;SDS011;47868;51.326;6.550;2023-08-07T08:58:12;6.47;;;3.45;;
61915;SDS011;47868;51.326;6.550;2023-08-07T09:00:38;7.03;;;3.03;;
61915;SDS011;47868;51.326;6.550;2023-08-07T09:03:05;10.52;;;3.60;;
61915;SDS011;47868;51.326;6.550;2023-08-07T09:05:31;9.48;;;3.30;;
61915;SDS011;47868;51.326;6.550;2023-08-07T09:07:57;13.68;;;3.78;;
61915;SDS011;47868;51.326;6.550;2023-08-07T09:10:24;10.70;;;3.42;;
61915;SDS011;47868;51.326;6.550;2023-08-07T09:12:57;5.65;;;3.08;;
61915;SDS011;47868;51.326;6.550;2023-08-07T09:15:25;9.68;;;2.95;;
61915;SDS011;47868;51.326;6.550;2023-08-07T09:17:52;4.60;;;2.40;;
61915;SDS011;47868;51.326;6.550;2023-08-07T09:20:19;8.02;;;2.72;;
61915;SDS011;47868;51.326;6.550;2023-08-07T09:22:48;6.20;;;2.97;;
61915;SDS011;47868;51.326;6.550;2023-08-07T09:25:26;14.25;;;3.10;;
61915;SDS011;47868;51.326;6.550;2023-08-07T09:27:54;12.93;;;3.35;;
61915;SDS011;47868;51.326;6.550;2023-08-07T09:30:20;11.48;;;3.38;;
61915;SDS011;47868;51.326;6.550;2023-08-07T09:32:49;9.38;;;3.13;;
61915;SDS011;47868;51.326;6.550;2023-08-07T09:35:15;9.80;;;2.97;;
61915;SDS011;47868;51.326;6.550;2023-08-07T09:37:46;6.63;;;2.75;;
61915;SDS011;47868;51.326;6.550;2023-08-07T09:40:12;8.63;;;2.88;;
61915;SDS011;47868;51.326;6.550;2023-08-07T09:42:40;5.53;;;2.40;;
61915;SDS011;47868;51.326;6.550;2023-08-07T09:48:05;11.15;;;3.33;;
61915;SDS011;47868;51.326;6.550;2023-08-07T09:50:36;9.70;;;3.50;;
61915;SDS011;47868;51.326;6.550;2023-08-07T09:53:02;10.15;;;2.83;;
61915;SDS011;47868;51.326;6.550;2023-08-07T09:55:28;8.23;;;2.67;;
61915;SDS011;47868;51.326;6.550;2023-08-07T09:57:54;11.13;;;3.17;;
61915;SDS011;47868;51.326;6.550;2023-08-07T10:00:20;9.93;;;3.47;;
61915;SDS011;47868;51.326;6.550;2023-08-07T10:02:47;8.40;;;3.00;;
61915;SDS011;47868;51.326;6.550;2023-08-07T10:05:13;7.75;;;2.75;;
61915;SDS011;47868;51.326;6.550;2023-08-07T10:07:40;7.15;;;2.75;;
61915;SDS011;47868;51.326;6.550;2023-08-07T10:10:07;9.25;;;3.05;;
61915;SDS011;47868;51.326;6.550;2023-08-07T10:12:33;9.68;;;3.05;;
61915;SDS011;47868;51.326;6.550;2023-08-07T10:14:59;12.23;;;3.10;;
61915;SDS011;47868;51.326;6.550;2023-08-07T10:17:26;7.85;;;2.70;;
61915;SDS011;47868;51.326;6.550;2023-08-07T10:19:53;9.38;;;3.10;;
61915;SDS011;47868;51.326;6.550;2023-08-07T10:22:19;14.60;;;2.55;;
61915;SDS011;47868;51.326;6.550;2023-08-07T10:24:48;8.98;;;2.95;;
61915;SDS011;47868;51.326;6.550;2023-08-07T10:27:15;10.30;;;2.65;;
61915;SDS011;47868;51.326;6.550;2023-08-07T10:29:42;10.93;;;2.83;;
61915;SDS011;47868;51.326;6.550;2023-08-07T10:32:09;7.18;;;2.45;;
61915;SDS011;47868;51.326;6.550;2023-08-07T10:34:39;6.50;;;2.47;;
61915;SDS011;47868;51.326;6.550;2023-08-07T10:37:08;4.47;;;1.95;;
61915;SDS011;47868;51.326;6.550;2023-08-07T10:39:34;5.32;;;2.35;;
61915;SDS011;47868;51.326;6.550;2023-08-07T10:42:00;10.85;;;3.55;;
61915;SDS011;47868;51.326;6.550;2023-08-07T10:44:30;6.65;;;2.53;;
61915;SDS011;47868;51.326;6.550;2023-08-07T10:46:56;5.90;;;2.58;;
61915;SDS011;47868;51.326;6.550;2023-08-07T10:51:58;10.73;;;3.05;;
61915;SDS011;47868;51.326;6.550;2023-08-07T10:54:24;8.10;;;2.22;;
61915;SDS011;47868;51.326;6.550;2023-08-07T10:56:53;6.60;;;2.30;;
61915;SDS011;47868;51.326;6.550;2023-08-07T10:59:20;5.72;;;2.47;;
61915;SDS011;47868;51.326;6.550;2023-08-07T11:01:50;8.32;;;2.33;;
61915;SDS011;47868;51.326;6.550;2023-08-07T11:04:17;6.60;;;1.92;;
61915;SDS011;47868;51.326;6.550;2023-08-07T11:06:46;7.13;;;2.40;;
61915;SDS011;47868;51.326;6.550;2023-08-07T11:09:12;6.93;;;2.25;;
61915;SDS011;47868;51.326;6.550;2023-08-07T11:11:42;5.13;;;1.92;;
61915;SDS011;47868;51.326;6.550;2023-08-07T11:14:09;4.60;;;2.58;;
61915;SDS011;47868;51.326;6.550;2023-08-07T11:16:35;6.72;;;2.40;;
61915;SDS011;47868;51.326;6.550;2023-08-07T11:19:01;9.95;;;2.22;;
61915;SDS011;47868;51.326;6.550;2023-08-07T11:21:28;7.22;;;2.38;;
61915;SDS011;47868;51.326;6.550;2023-08-07T11:24:01;5.63;;;2.40;;
61915;SDS011;47868;51.326;6.550;2023-08-07T11:26:27;2.60;;;1.92;;
61915;SDS011;47868;51.326;6.550;2023-08-07T11:28:54;9.13;;;2.55;;
61915;SDS011;47868;51.326;6.550;2023-08-07T11:31:26;2.67;;;1.92;;
61915;SDS011;47868;51.326;6.550;2023-08-07T11:33:55;4.53;;;1.75;;
61915;SDS011;47868;51.326;6.550;2023-08-07T11:36:22;7.65;;;2.33;;
61915;SDS011;47868;51.326;6.550;2023-08-07T11:38:49;6.18;;;2.22;;
61915;SDS011;47868;51.326;6.550;2023-08-07T11:41:15;7.05;;;2.33;;
61915;SDS011;47868;51.326;6.550;2023-08-07T11:43:42;3.75;;;2.10;;
61915;SDS011;47868;51.326;6.550;2023-08-07T11:46:08;6.82;;;2.20;;
61915;SDS011;47868;51.326;6.550;2023-08-07T11:48:36;5.53;;;1.73;;
61915;SDS011;47868;51.326;6.550;2023-08-07T11:51:02;5.05;;;1.83;;
61915;SDS011;47868;51.326;6.550;2023-08-07T11:53:29;6.90;;;2.22;;
61915;SDS011;47868;51.326;6.550;2023-08-07T11:56:02;4.20;;;1.90;;
61915;SDS011;47868;51.326;6.550;2023-08-07T11:58:34;4.55;;;2.25;;
61915;SDS011;47868;51.326;6.550;2023-08-07T12:01:04;6.28;;;2.10;;
61915;SDS011;47868;51.326;6.550;2023-08-07T12:03:31;4.75;;;2.10;;
61915;SDS011;47868;51.326;6.550;2023-08-07T12:06:01;7.35;;;2.35;;
61915;SDS011;47868;51.326;6.550;2023-08-07T12:08:31;4.30;;;1.60;;
61915;SDS011;47868;51.326;6.550;2023-08-07T12:10:57;4.38;;;2.13;;
61915;SDS011;47868;51.326;6.550;2023-08-07T12:13:24;7.10;;;2.28;;
61915;SDS011;47868;51.326;6.550;2023-08-07T12:15:53;7.97;;;2.00;;
61915;SDS011;47868;51.326;6.550;2023-08-07T12:18:20;3.33;;;1.67;;
61915;SDS011;47868;51.326;6.550;2023-08-07T12:20:46;4.55;;;1.70;;
61915;SDS011;47868;51.326;6.550;2023-08-07T12:23:18;4.13;;;1.85;;
61915;SDS011;47868;51.326;6.550;2023-08-07T12:25:44;7.07;;;1.98;;
61915;SDS011;47868;51.326;6.550;2023-08-07T12:28:10;5.63;;;2.00;;
61915;SDS011;47868;51.326;6.550;2023-08-07T12:30:37;5.57;;;1.73;;
61915;SDS011;47868;51.326;6.550;2023-08-07T12:33:03;5.35;;;2.20;;
61915;SDS011;47868;51.326;6.550;2023-08-07T12:35:35;6.18;;;1.52;;
61915;SDS011;47868;51.326;6.550;2023-08-07T12:38:06;4.95;;;1.80;;
61915;SDS011;47868;51.326;6.550;2023-08-07T12:40:34;2.72;;;1.73;;
61915;SDS011;47868;51.326;6.550;2023-08-07T12:43:04;4.07;;;1.90;;
61915;SDS011;47868;51.326;6.550;2023-08-07T12:45:30;3.83;;;1.90;;
61915;SDS011;47868;51.326;6.550;2023-08-07T12:47:56;7.75;;;2.03;;
61915;SDS011;47868;51.326;6.550;2023-08-07T12:50:22;7.22;;;2.20;;
61915;SDS011;47868;51.326;6.550;2023-08-07T12:52:52;7.68;;;1.98;;
61915;SDS011;47868;51.326;6.550;2023-08-07T12:55:18;2.88;;;1.65;;
61915;SDS011;47868;51.326;6.550;2023-08-07T12:57:44;3.28;;;1.92;;
61915;SDS011;47868;51.326;6.550;2023-08-07T13:00:11;5.75;;;1.80;;
61915;SDS011;47868;51.326;6.550;2023-08-07T13:02:42;4.32;;;1.70;;
61915;SDS011;47868;51.326;6.550;2023-08-07T13:05:09;4.22;;;1.90;;
61915;SDS011;47868;51.326;6.550;2023-08-07T13:07:35;3.70;;;1.88;;
61915;SDS011;47868;51.326;6.550;2023-08-07T13:10:03;6.35;;;1.80;;
61915;SDS011;47868;51.326;6.550;2023-08-07T13:12:29;3.78;;;1.80;;
61915;SDS011;47868;51.326;6.550;2023-08-07T13:14:59;7.03;;;2.00;;
61915;SDS011;47868;51.326;6.550;2023-08-07T13:17:25;3.97;;;1.60;;
61915;SDS011;47868;51.326;6.550;2023-08-07T13:19:51;2.90;;;1.35;;
61915;SDS011;47868;51.326;6.550;2023-08-07T13:22:17;4.07;;;1.95;;
61915;SDS011;47868;51.326;6.550;2023-08-07T13:24:43;4.68;;;1.80;;
61915;SDS011;47868;51.326;6.550;2023-08-07T13:27:09;4.07;;;1.80;;
61915;SDS011;47868;51.326;6.550;2023-08-07T13:29:35;4.47;;;1.70;;
61915;SDS011;47868;51.326;6.550;2023-08-07T13:32:01;2.78;;;1.60;;
61915;SDS011;47868;51.326;6.550;2023-08-07T13:34:34;5.43;;;1.80;;
61915;SDS011;47868;51.326;6.550;2023-08-07T13:37:00;2.33;;;1.67;;
61915;SDS011;47868;51.326;6.550;2023-08-07T13:39:26;3.92;;;1.58;;
61915;SDS011;47868;51.326;6.550;2023-08-07T13:41:52;3.17;;;1.50;;
61915;SDS011;47868;51.326;6.550;2023-08-07T13:44:19;3.10;;;1.63;;
61915;SDS011;47868;51.326;6.550;2023-08-07T13:46:45;1.67;;;1.33;;
61915;SDS011;47868;51.326;6.550;2023-08-07T13:49:12;2.38;;;1.55;;
61915;SDS011;47868;51.326;6.550;2023-08-07T13:51:38;4.30;;;1.70;;
61915;SDS011;47868;51.326;6.550;2023-08-07T13:54:04;3.65;;;2.13;;
61915;SDS011;47868;51.326;6.550;2023-08-07T13:56:31;3.67;;;1.58;;
61915;SDS011;47868;51.326;6.550;2023-08-07T13:58:57;3.08;;;1.70;;
61915;SDS011;47868;51.326;6.550;2023-08-07T14:01:23;2.47;;;1.50;;
61915;SDS011;47868;51.326;6.550;2023-08-07T14:03:49;2.92;;;1.70;;
61915;SDS011;47868;51.326;6.550;2023-08-07T14:06:15;6.40;;;1.85;;
61915;SDS011;47868;51.326;6.550;2023-08-07T14:08:41;7.90;;;2.03;;
61915;SDS011;47868;51.326;6.550;2023-08-07T14:11:07;5.05;;;2.08;;
61915;SDS011;47868;51.326;6.550;2023-08-07T14:13:36;4.30;;;2.03;;
61915;SDS011;47868;51.326;6.550;2023-08-07T14:16:02;7.93;;;1.77;;
61915;SDS011;47868;51.326;6.550;2023-08-07T14:18:28;3.78;;;1.90;;
61915;SDS011;47868;51.326;6.550;2023-08-07T14:20:54;4.28;;;1.90;;
61915;SDS011;47868;51.326;6.550;2023-08-07T14:23:20;4.13;;;2.35;;
61915;SDS011;47868;51.326;6.550;2023-08-07T14:25:46;3.97;;;1.80;;
61915;SDS011;47868;51.326;6.550;2023-08-07T14:28:15;4.82;;;2.30;;
61915;SDS011;47868;51.326;6.550;2023-08-07T14:30:41;4.63;;;2.33;;
61915;SDS011;47868;51.326;6.550;2023-08-07T14:33:07;7.50;;;2.05;;
61915;SDS011;47868;51.326;6.550;2023-08-07T14:35:33;7.82;;;2.40;;
61915;SDS011;47868;51.326;6.550;2023-08-07T14:37:59;8.50;;;2.70;;
61915;SDS011;47868;51.326;6.550;2023-08-07T14:40:25;5.40;;;2.65;;
61915;SDS011;47868;51.326;6.550;2023-08-07T14:42:53;5.88;;;2.45;;
61915;SDS011;47868;51.326;6.550;2023-08-07T14:45:19;4.85;;;2.47;;
61915;SDS011;47868;51.326;6.550;2023-08-07T14:47:45;5.00;;;2.42;;